createdAt,value
2023-01-05T00:00:09.767Z,14.87
2023-01-05T00:01:32.202Z,7.00
2023-01-05T00:02:54.400Z,9.70
2023-01-05T00:04:16.549Z,11.18
2023-01-05T00:05:38.719Z,12.27
2023-01-05T00:07:00.834Z,9.70
2023-01-05T00:08:23.061Z,12.43
2023-01-05T00:09:45.167Z,7.40
2023-01-05T00:11:31.587Z,8.57
2023-01-05T00:13:23.051Z,7.83
2023-01-05T00:15:03.903Z,10.53
2023-01-05T00:16:44.850Z,19.77
2023-01-05T00:18:30.038Z,13.13
2023-01-05T00:20:10.632Z,12.77
2023-01-05T00:21:51.381Z,11.30
2023-01-05T00:23:13.445Z,17.67
2023-01-05T00:24:35.561Z,3.47
2023-01-05T00:25:57.669Z,7.90
2023-01-05T00:27:19.760Z,8.63
2023-01-05T00:28:41.846Z,9.57
2023-01-05T00:30:05.129Z,6.03
2023-01-05T00:31:27.309Z,10.67
2023-01-05T00:32:50.063Z,11.80
2023-01-05T00:34:12.222Z,8.50
2023-01-05T00:35:34.506Z,7.57
2023-01-05T00:36:56.707Z,10.80
2023-01-05T00:38:18.815Z,7.90
2023-01-05T00:39:40.876Z,8.60
2023-01-05T00:41:03.095Z,13.73
2023-01-05T00:42:25.699Z,7.90
2023-01-05T00:43:47.845Z,9.20
2023-01-05T00:45:13.593Z,10.27
2023-01-05T00:46:35.639Z,10.80
2023-01-05T00:47:57.734Z,11.40
2023-01-05T00:49:19.800Z,12.07
2023-01-05T00:50:41.842Z,10.63
2023-01-05T00:52:04.948Z,14.17
2023-01-05T00:53:27.027Z,11.40
2023-01-05T00:54:49.196Z,9.53
2023-01-05T00:56:11.213Z,9.13
2023-01-05T00:57:33.231Z,9.23
2023-01-05T00:58:55.431Z,12.63
2023-01-05T01:00:19.612Z,10.20
2023-01-05T01:01:42.153Z,8.27
2023-01-05T01:03:04.664Z,8.03
2023-01-05T01:04:26.742Z,12.40
2023-01-05T01:05:57.237Z,13.17
2023-01-05T01:07:19.494Z,13.97
2023-01-05T01:08:41.552Z,12.20
2023-01-05T01:10:04.136Z,10.30
2023-01-05T01:11:26.159Z,21.40
2023-01-05T01:12:48.199Z,22.00
2023-01-05T01:14:11.793Z,18.60
2023-01-05T01:15:35.391Z,18.77
2023-01-05T01:16:57.659Z,16.10
2023-01-05T01:18:19.787Z,18.47
2023-01-05T01:19:41.932Z,10.67
2023-01-05T01:21:04.522Z,12.60
2023-01-05T01:22:26.635Z,13.63
2023-01-05T01:23:49.127Z,14.17
2023-01-05T01:25:11.176Z,10.20
2023-01-05T01:26:33.433Z,10.20
2023-01-05T01:27:55.484Z,14.17
2023-01-05T01:29:18.012Z,16.57
2023-01-05T01:30:40.138Z,10.43
2023-01-05T01:32:02.285Z,16.90
2023-01-05T01:33:24.356Z,14.50
2023-01-05T01:34:46.424Z,14.77
2023-01-05T01:36:10.091Z,8.67
2023-01-05T01:37:32.106Z,16.33
2023-01-05T01:38:54.154Z,7.47
2023-01-05T01:40:16.261Z,12.07
2023-01-05T01:41:38.753Z,11.77
2023-01-05T01:43:00.856Z,10.97
2023-01-05T01:44:48.388Z,13.00
2023-01-05T01:46:11.108Z,17.47
2023-01-05T01:47:40.042Z,17.07
2023-01-05T01:49:08.863Z,10.97
2023-01-05T01:50:38.869Z,15.37
2023-01-05T01:52:00.974Z,6.63
2023-01-05T01:53:27.924Z,8.23
2023-01-05T01:54:51.788Z,12.40
2023-01-05T01:56:17.507Z,11.37
2023-01-05T01:57:41.335Z,12.63
2023-01-05T01:59:03.714Z,14.10
2023-01-05T02:00:25.911Z,11.23
2023-01-05T02:01:50.574Z,12.77
2023-01-05T02:03:12.771Z,12.47
2023-01-05T02:04:37.904Z,12.10
2023-01-05T02:06:00.863Z,16.93
2023-01-05T02:07:25.408Z,15.73
2023-01-05T02:08:47.801Z,8.90
2023-01-05T02:10:10.102Z,12.43
2023-01-05T02:11:58.153Z,12.97
2023-01-05T02:13:59.043Z,17.40
2023-01-05T02:15:31.852Z,17.53
2023-01-05T02:17:27.387Z,10.00
2023-01-05T02:18:55.358Z,9.07
2023-01-05T02:21:16.569Z,14.70
2023-01-05T02:23:13.335Z,6.53
2023-01-05T02:25:11.917Z,13.33
2023-01-05T02:26:49.083Z,9.97
2023-01-05T02:28:48.432Z,13.60
2023-01-05T02:30:15.817Z,9.67
2023-01-05T02:31:46.213Z,9.97
2023-01-05T02:33:15.843Z,17.00
2023-01-05T02:34:44.510Z,7.77
2023-01-05T02:36:29.705Z,8.13
2023-01-05T02:38:05.991Z,13.30
2023-01-05T02:39:51.280Z,8.23
2023-01-05T02:41:23.105Z,8.03
2023-01-05T02:42:48.334Z,4.10
2023-01-05T02:44:10.807Z,6.37
2023-01-05T02:45:32.959Z,4.03
2023-01-05T02:47:04.098Z,7.57
2023-01-05T02:48:26.459Z,10.43
2023-01-05T02:49:48.519Z,7.13
2023-01-05T02:51:28.140Z,13.73
2023-01-05T02:53:03.029Z,6.43
2023-01-05T02:54:31.565Z,6.67
2023-01-05T02:56:16.914Z,10.10
2023-01-05T02:57:50.758Z,8.03
2023-01-05T02:59:22.109Z,4.40
2023-01-05T03:01:11.597Z,4.23
2023-01-05T03:02:34.857Z,6.40
2023-01-05T03:03:58.889Z,7.43
2023-01-05T03:05:32.525Z,7.53
2023-01-05T03:06:58.812Z,5.57
2023-01-05T03:08:32.075Z,8.33
2023-01-05T03:09:55.059Z,10.30
2023-01-05T03:11:35.887Z,7.10
2023-01-05T03:13:21.380Z,14.87
2023-01-05T03:14:48.450Z,8.67
2023-01-05T03:16:16.491Z,8.50
2023-01-05T03:17:45.152Z,11.63
2023-01-05T03:19:33.367Z,11.77
2023-01-05T03:20:55.618Z,12.20
2023-01-05T03:22:49.501Z,14.87
2023-01-05T03:24:30.706Z,11.90
2023-01-05T03:26:12.934Z,10.83
2023-01-05T03:27:54.191Z,11.17
2023-01-05T03:29:34.973Z,10.73
2023-01-05T03:31:36.954Z,11.47
2023-01-05T03:33:37.496Z,8.23
2023-01-05T03:35:28.596Z,10.90
2023-01-05T03:36:56.041Z,9.27
2023-01-05T03:38:26.860Z,20.50
2023-01-05T03:39:48.973Z,11.70
2023-01-05T03:41:14.382Z,7.17
2023-01-05T03:42:38.090Z,11.80
2023-01-05T03:44:00.271Z,11.97
2023-01-05T03:45:24.306Z,8.23
2023-01-05T03:46:46.592Z,6.63
2023-01-05T03:48:08.742Z,10.90
2023-01-05T03:49:31.311Z,11.60
2023-01-05T03:50:53.416Z,10.43
2023-01-05T03:52:15.423Z,8.43
2023-01-05T03:53:37.531Z,12.90
2023-01-05T03:54:59.581Z,11.23
2023-01-05T03:56:21.626Z,5.73
2023-01-05T03:57:43.724Z,7.40
2023-01-05T03:59:05.871Z,8.10
2023-01-05T04:00:28.000Z,9.90
2023-01-05T04:01:50.287Z,9.77
2023-01-05T04:03:12.683Z,7.07
2023-01-05T04:04:34.885Z,9.40
2023-01-05T04:05:56.935Z,4.13
2023-01-05T04:07:19.020Z,13.60
2023-01-05T04:08:42.021Z,12.37
2023-01-05T04:10:05.328Z,11.60
2023-01-05T04:11:27.488Z,3.67
2023-01-05T04:12:49.671Z,14.97
2023-01-05T04:14:11.796Z,9.43
2023-01-05T04:15:33.989Z,15.70
2023-01-05T04:16:56.032Z,9.17
2023-01-05T04:18:18.147Z,10.83
2023-01-05T04:19:40.488Z,14.53
2023-01-05T04:21:03.109Z,4.57
2023-01-05T04:22:27.382Z,11.23
2023-01-05T04:23:49.937Z,6.87
2023-01-05T04:25:12.032Z,11.40
2023-01-05T04:26:34.153Z,9.77
2023-01-05T04:27:56.315Z,12.40
2023-01-05T04:29:18.381Z,14.87
2023-01-05T04:30:42.801Z,7.57
2023-01-05T04:32:05.211Z,5.77
2023-01-05T04:33:28.308Z,14.70
2023-01-05T04:34:50.405Z,10.40
2023-01-05T04:36:12.477Z,8.00
2023-01-05T04:37:34.590Z,10.03
2023-01-05T04:38:56.676Z,15.33
2023-01-05T04:40:18.759Z,5.90
2023-01-05T04:41:41.192Z,5.47
2023-01-05T04:43:03.468Z,6.93
2023-01-05T04:44:25.538Z,7.67
2023-01-05T04:45:48.557Z,9.10
2023-01-05T04:47:10.690Z,11.13
2023-01-05T04:48:33.017Z,15.83
2023-01-05T04:49:55.079Z,5.30
2023-01-05T04:51:17.158Z,8.23
2023-01-05T04:52:39.408Z,8.17
2023-01-05T04:54:01.530Z,6.43
2023-01-05T04:55:23.698Z,5.80
2023-01-05T04:56:45.779Z,4.90
2023-01-05T04:58:11.829Z,10.47
2023-01-05T04:59:34.234Z,10.50
2023-01-05T05:00:56.452Z,8.63
2023-01-05T05:02:18.656Z,12.20
2023-01-05T05:03:40.964Z,9.40
2023-01-05T05:05:03.509Z,11.27
2023-01-05T05:06:25.675Z,6.30
2023-01-05T05:07:47.797Z,6.47
2023-01-05T05:09:10.306Z,4.90
2023-01-05T05:10:33.433Z,6.53
2023-01-05T05:11:55.568Z,9.07
2023-01-05T05:13:17.779Z,10.13
2023-01-05T05:14:40.030Z,5.87
2023-01-05T05:16:02.467Z,6.10
2023-01-05T05:17:24.789Z,6.13
2023-01-05T05:18:47.290Z,8.10
2023-01-05T05:20:09.870Z,18.07
2023-01-05T05:21:31.979Z,8.73
2023-01-05T05:22:54.071Z,10.30
2023-01-05T05:24:16.180Z,10.23
2023-01-05T05:25:38.270Z,5.80
2023-01-05T05:27:00.518Z,6.57
2023-01-05T05:28:28.388Z,6.23
2023-01-05T05:29:50.673Z,6.27
2023-01-05T05:31:12.817Z,13.30
2023-01-05T05:32:38.195Z,11.87
2023-01-05T05:34:04.704Z,6.10
2023-01-05T05:35:26.846Z,9.13
2023-01-05T05:36:48.996Z,3.70
2023-01-05T05:38:11.091Z,7.27
2023-01-05T05:39:33.224Z,3.90
2023-01-05T05:40:55.264Z,7.07
2023-01-05T05:42:17.290Z,14.40
2023-01-05T05:43:39.346Z,9.60
2023-01-05T05:45:01.417Z,9.70
2023-01-05T05:46:23.536Z,8.23
2023-01-05T05:47:45.685Z,14.70
2023-01-05T05:49:08.760Z,11.73
2023-01-05T05:50:30.959Z,13.30
2023-01-05T05:51:53.062Z,11.33
2023-01-05T05:53:15.187Z,5.60
2023-01-05T05:54:37.258Z,5.43
2023-01-05T05:55:59.326Z,5.53
2023-01-05T05:57:21.380Z,6.90
2023-01-05T05:58:43.646Z,8.03
2023-01-05T06:00:06.258Z,12.33
2023-01-05T06:01:28.657Z,13.50
2023-01-05T06:02:50.839Z,5.53
2023-01-05T06:04:13.109Z,4.63
2023-01-05T06:05:35.342Z,3.93
2023-01-05T06:06:57.405Z,14.70
2023-01-05T06:08:19.525Z,8.73
2023-01-05T06:09:41.559Z,5.80
2023-01-05T06:11:03.682Z,5.07
2023-01-05T06:12:25.919Z,2.60
2023-01-05T06:13:50.793Z,5.33
2023-01-05T06:15:12.890Z,4.80
2023-01-05T06:16:35.019Z,4.27
2023-01-05T06:17:57.173Z,15.83
2023-01-05T06:19:19.313Z,5.70
2023-01-05T06:20:41.783Z,4.53
2023-01-05T06:22:03.917Z,3.90
2023-01-05T06:23:25.990Z,4.80
2023-01-05T06:24:48.092Z,10.40
2023-01-05T06:26:10.175Z,8.67
2023-01-05T06:27:32.237Z,5.43
2023-01-05T06:28:54.419Z,4.73
2023-01-05T06:30:16.624Z,3.77
2023-01-05T06:31:38.831Z,5.77
2023-01-05T06:33:01.129Z,9.50
2023-01-05T06:34:23.199Z,5.63
2023-01-05T06:35:45.255Z,4.60
2023-01-05T06:37:07.370Z,8.23
2023-01-05T06:38:30.156Z,3.63
2023-01-05T06:39:55.644Z,3.03
2023-01-05T06:41:17.728Z,4.07
2023-01-05T06:42:40.478Z,2.87
2023-01-05T06:44:02.648Z,5.17
2023-01-05T06:45:24.750Z,14.30
2023-01-05T06:46:46.847Z,6.67
2023-01-05T06:48:08.885Z,6.00
2023-01-05T06:49:30.943Z,7.43
2023-01-05T06:50:52.995Z,9.13
2023-01-05T06:52:16.937Z,3.37
2023-01-05T06:53:39.180Z,5.37
2023-01-05T06:55:01.198Z,9.43
2023-01-05T06:56:23.270Z,5.47
2023-01-05T06:57:45.358Z,4.50
2023-01-05T06:59:07.402Z,5.27
2023-01-05T07:00:29.855Z,5.73
2023-01-05T07:01:52.113Z,3.50
2023-01-05T07:03:14.407Z,5.90
2023-01-05T07:04:36.543Z,8.67
2023-01-05T07:05:58.633Z,3.30
2023-01-05T07:07:20.689Z,8.67
2023-01-05T07:08:43.038Z,5.83
2023-01-05T07:10:05.955Z,8.47
2023-01-05T07:11:28.051Z,15.37
2023-01-05T07:12:50.115Z,12.93
2023-01-05T07:14:12.140Z,14.27
2023-01-05T07:15:34.308Z,2.67
2023-01-05T07:16:56.365Z,7.10
2023-01-05T07:18:18.408Z,9.23
2023-01-05T07:19:40.615Z,10.83
2023-01-05T07:21:02.724Z,9.80
2023-01-05T07:22:24.832Z,5.30
2023-01-05T07:23:47.088Z,8.47
2023-01-05T07:25:09.489Z,5.27
2023-01-05T07:26:31.502Z,6.50
2023-01-05T07:27:53.536Z,6.73
2023-01-05T07:29:15.915Z,4.90
2023-01-05T07:30:37.990Z,4.30
2023-01-05T07:32:00.103Z,9.23
2023-01-05T07:33:22.193Z,5.77
2023-01-05T07:34:51.257Z,14.47
2023-01-05T07:36:16.754Z,10.27
2023-01-05T07:37:38.820Z,7.53
2023-01-05T07:39:00.904Z,10.93
2023-01-05T07:40:22.997Z,6.40
2023-01-05T07:41:45.603Z,10.43
2023-01-05T07:43:07.779Z,10.87
2023-01-05T07:44:29.847Z,5.37
2023-01-05T07:45:51.932Z,10.40
2023-01-05T07:47:14.011Z,15.30
2023-01-05T07:48:36.047Z,10.90
2023-01-05T07:49:58.158Z,10.60
2023-01-05T07:51:20.889Z,6.03
2023-01-05T07:52:42.927Z,14.30
2023-01-05T07:54:04.975Z,4.10
2023-01-05T07:55:27.139Z,6.33
2023-01-05T07:56:49.153Z,13.00
2023-01-05T07:58:11.270Z,9.43
2023-01-05T07:59:33.354Z,7.40
2023-01-05T08:00:56.096Z,14.47
2023-01-05T08:02:18.344Z,8.20
2023-01-05T08:03:40.635Z,9.50
2023-01-05T08:05:02.733Z,11.00
2023-01-05T08:06:25.153Z,8.63
2023-01-05T08:07:47.229Z,8.03
2023-01-05T08:09:27.994Z,7.90
2023-01-05T08:10:50.045Z,10.23
2023-01-05T08:12:12.109Z,11.30
2023-01-05T08:13:53.259Z,6.73
2023-01-05T08:15:15.360Z,6.97
2023-01-05T08:16:37.450Z,14.30
2023-01-05T08:17:59.518Z,11.23
2023-01-05T08:19:21.585Z,11.30
2023-01-05T08:20:43.643Z,7.40
2023-01-05T08:22:05.908Z,9.70
2023-01-05T08:23:28.407Z,4.33
2023-01-05T08:24:52.194Z,8.60
2023-01-05T08:26:16.629Z,11.93
2023-01-05T08:27:38.762Z,5.17
2023-01-05T08:29:01.375Z,11.37
2023-01-05T08:30:23.415Z,7.20
2023-01-05T08:31:45.561Z,6.10
2023-01-05T08:33:07.824Z,9.37
2023-01-05T08:34:34.468Z,11.60
2023-01-05T08:35:57.096Z,6.03
2023-01-05T08:37:19.178Z,6.90
2023-01-05T08:38:48.531Z,15.57
2023-01-05T08:40:11.187Z,10.87
2023-01-05T08:41:36.320Z,4.67
2023-01-05T08:42:58.488Z,10.57
2023-01-05T08:44:20.694Z,7.97
2023-01-05T08:45:47.488Z,6.10
2023-01-05T08:47:09.662Z,8.97
2023-01-05T08:48:31.695Z,15.23
2023-01-05T08:49:53.732Z,5.60
2023-01-05T08:51:15.845Z,8.00
2023-01-05T08:52:40.440Z,14.80
2023-01-05T08:54:02.568Z,10.10
2023-01-05T08:55:24.760Z,5.60
2023-01-05T08:56:50.436Z,6.97
2023-01-05T08:58:12.558Z,10.57
2023-01-05T08:59:34.617Z,10.03
2023-01-05T09:00:57.052Z,5.87
2023-01-05T09:02:25.471Z,10.27
2023-01-05T09:03:48.722Z,11.33
2023-01-05T09:05:10.794Z,5.57
2023-01-05T09:06:33.124Z,18.40
2023-01-05T09:07:55.186Z,4.70
2023-01-05T09:09:17.318Z,7.43
2023-01-05T09:10:39.391Z,7.97
2023-01-05T09:12:01.483Z,4.70
2023-01-05T09:13:23.572Z,10.40
2023-01-05T09:14:45.719Z,13.27
2023-01-05T09:16:13.452Z,11.87
2023-01-05T09:17:38.829Z,9.13
2023-01-05T09:19:03.010Z,8.87
2023-01-05T09:20:25.046Z,6.73
2023-01-05T09:21:47.127Z,9.70
2023-01-05T09:23:09.159Z,11.83
2023-01-05T09:24:31.244Z,7.13
2023-01-05T09:25:53.294Z,11.77
2023-01-05T09:27:15.411Z,5.97
2023-01-05T09:28:37.997Z,3.47
2023-01-05T09:30:00.152Z,3.10
2023-01-05T09:31:23.167Z,4.47
2023-01-05T09:32:45.286Z,1.90
2023-01-05T09:34:07.378Z,3.40
2023-01-05T09:35:29.412Z,7.50
2023-01-05T09:36:51.495Z,4.97
2023-01-05T09:38:13.498Z,3.13
2023-01-05T09:39:35.639Z,9.80
2023-01-05T09:41:07.105Z,5.20
2023-01-05T09:42:34.075Z,1.93
2023-01-05T09:43:59.709Z,2.83
2023-01-05T09:45:27.511Z,6.07
2023-01-05T09:46:51.060Z,7.30
2023-01-05T09:48:15.028Z,5.30
2023-01-05T09:49:39.167Z,5.70
2023-01-05T09:51:01.209Z,4.40
2023-01-05T09:52:23.221Z,3.93
2023-01-05T09:53:45.938Z,6.77
2023-01-05T09:55:19.046Z,7.00
2023-01-05T09:58:36.398Z,8.20
2023-01-05T10:00:05.808Z,3.90
2023-01-05T10:01:27.985Z,3.43
2023-01-05T10:02:59.009Z,4.73
2023-01-05T10:04:30.482Z,5.03
2023-01-05T10:05:53.450Z,5.23
2023-01-05T10:07:40.553Z,14.33
2023-01-05T10:09:04.685Z,9.03
2023-01-05T10:10:46.606Z,5.23
2023-01-05T10:12:27.195Z,8.30
2023-01-05T10:14:10.761Z,5.83
2023-01-05T10:15:54.311Z,5.10
2023-01-05T10:19:04.284Z,4.00
2023-01-05T10:20:58.651Z,9.40
2023-01-05T10:22:44.392Z,6.63
2023-01-05T10:24:37.344Z,8.43
2023-01-05T10:26:02.333Z,7.67
2023-01-05T10:27:33.418Z,8.70
2023-01-05T10:29:16.094Z,4.20
2023-01-05T10:31:00.321Z,5.43
2023-01-05T10:32:26.191Z,3.83
2023-01-05T10:34:00.209Z,3.80
2023-01-05T10:36:06.259Z,4.70
2023-01-05T10:37:54.709Z,4.83
2023-01-05T10:39:56.570Z,4.13
2023-01-05T10:41:29.676Z,4.50
2023-01-05T10:43:07.431Z,2.40
2023-01-05T10:44:43.604Z,4.87
2023-01-05T10:47:53.659Z,4.50
2023-01-05T10:49:27.843Z,3.03
2023-01-05T10:50:52.873Z,3.63
2023-01-05T10:52:18.385Z,11.37
2023-01-05T10:53:43.879Z,3.23
2023-01-05T10:55:14.122Z,6.30
2023-01-05T10:56:36.183Z,2.80
2023-01-05T10:57:58.270Z,3.80
2023-01-05T10:59:20.365Z,3.53
2023-01-05T11:00:42.851Z,1.13
2023-01-05T11:02:13.165Z,7.50
2023-01-05T11:04:24.301Z,1.40
2023-01-05T11:05:42.701Z,6.20
2023-01-05T11:07:06.875Z,4.20
2023-01-05T11:08:31.436Z,6.77
2023-01-05T11:09:54.247Z,3.30
2023-01-05T11:11:26.595Z,4.10
2023-01-05T11:13:16.525Z,4.50
2023-01-05T11:14:43.355Z,4.60
2023-01-05T11:16:20.407Z,5.03
2023-01-05T11:17:45.369Z,2.70
2023-01-05T11:19:15.375Z,2.03
2023-01-05T11:20:37.479Z,9.93
2023-01-05T11:22:02.076Z,4.33
2023-01-05T11:23:36.561Z,5.10
2023-01-05T11:25:24.955Z,4.83
2023-01-05T11:26:53.687Z,8.87
2023-01-05T11:28:17.184Z,3.17
2023-01-05T11:29:39.240Z,4.70
2023-01-05T11:31:05.442Z,11.60
2023-01-05T11:32:27.636Z,3.50
2023-01-05T11:33:59.225Z,3.87
2023-01-05T11:35:30.332Z,4.10
2023-01-05T11:37:11.932Z,3.57
2023-01-05T11:38:34.868Z,11.27
2023-01-05T11:40:01.683Z,4.00
2023-01-05T11:41:24.544Z,4.40
2023-01-05T11:42:46.981Z,3.10
2023-01-05T11:44:21.514Z,4.30
2023-01-05T11:45:59.682Z,2.57
2023-01-05T11:47:27.238Z,4.80
2023-01-05T11:48:57.306Z,3.23
2023-01-05T11:50:27.676Z,4.20
2023-01-05T11:51:49.721Z,3.47
2023-01-05T11:53:33.604Z,9.53
2023-01-05T11:54:55.697Z,6.27
2023-01-05T11:56:22.783Z,7.67
2023-01-05T11:57:45.071Z,9.03
2023-01-05T11:59:30.214Z,20.63
2023-01-05T12:01:01.559Z,10.57
2023-01-05T12:03:16.282Z,5.13
2023-01-05T12:04:59.633Z,7.10
2023-01-05T12:06:27.315Z,5.93
2023-01-05T12:07:58.328Z,8.73
2023-01-05T12:09:32.704Z,11.23
2023-01-05T12:11:15.488Z,4.53
2023-01-05T12:13:17.398Z,11.03
2023-01-05T12:14:57.597Z,7.13
2023-01-05T12:16:55.705Z,4.97
2023-01-05T12:18:29.499Z,5.77
2023-01-05T12:20:24.231Z,4.30
2023-01-05T12:22:12.961Z,5.03
2023-01-05T12:23:40.751Z,3.90
2023-01-05T12:25:11.644Z,4.57
2023-01-05T12:27:14.556Z,6.43
2023-01-05T12:29:49.839Z,3.10
2023-01-05T12:34:00.143Z,6.23
2023-01-05T12:34:54.333Z,2.53
2023-01-05T12:36:28.707Z,3.73
2023-01-05T12:38:14.609Z,6.97
2023-01-05T12:39:36.602Z,9.83
2023-01-05T12:41:13.916Z,2.30
2023-01-05T12:43:12.600Z,3.47
2023-01-05T12:45:00.704Z,4.27
2023-01-05T12:46:40.717Z,5.33
2023-01-05T12:48:05.494Z,8.90
2023-01-05T12:50:02.531Z,1.73
2023-01-05T12:51:45.515Z,6.20
2023-01-05T12:53:17.659Z,3.50
2023-01-05T12:55:17.357Z,4.20
2023-01-05T12:56:53.636Z,3.30
2023-01-05T12:58:27.524Z,6.77
2023-01-05T13:00:03.289Z,7.50
2023-01-05T13:01:29.190Z,3.27
2023-01-05T13:03:02.135Z,4.40
2023-01-05T13:04:54.335Z,3.43
2023-01-05T13:06:22.649Z,3.10
2023-01-05T13:07:56.690Z,3.73
2023-01-05T13:09:23.356Z,5.10
2023-01-05T13:11:01.611Z,5.40
2023-01-05T13:12:24.254Z,2.40
2023-01-05T13:13:53.980Z,3.50
2023-01-05T13:15:23.169Z,3.33
2023-01-05T13:16:58.541Z,1.67
2023-01-05T13:18:24.627Z,3.07
2023-01-05T13:19:50.409Z,4.70
2023-01-05T13:21:15.497Z,1.57
2023-01-05T13:22:40.657Z,3.20
2023-01-05T13:24:09.196Z,2.80
2023-01-05T13:25:42.396Z,4.37
2023-01-05T13:27:04.817Z,5.90
2023-01-05T13:28:29.714Z,1.60
2023-01-05T13:29:59.354Z,5.93
2023-01-05T13:31:45.375Z,3.13
2023-01-05T13:33:33.322Z,2.50
2023-01-05T13:35:16.798Z,1.90
2023-01-05T13:36:54.394Z,2.50
2023-01-05T13:38:19.195Z,4.17
2023-01-05T13:39:44.466Z,3.30
2023-01-05T13:41:27.584Z,1.73
2023-01-05T13:43:01.521Z,1.23
2023-01-05T13:44:54.486Z,4.20
2023-01-05T13:46:41.080Z,1.43
2023-01-05T13:48:44.619Z,2.93
2023-01-05T13:50:33.960Z,0.80
2023-01-05T13:51:58.036Z,2.70
2023-01-05T13:53:30.600Z,1.50
2023-01-05T13:55:02.329Z,1.93
2023-01-05T13:56:30.058Z,1.57
2023-01-05T13:57:55.502Z,2.37
2023-01-05T13:59:46.713Z,1.60
2023-01-05T14:01:39.136Z,2.93
2023-01-05T14:03:14.293Z,1.00
2023-01-05T14:04:37.167Z,5.40
2023-01-05T14:06:02.769Z,2.20
2023-01-05T14:07:25.348Z,2.20
2023-01-05T14:10:29.765Z,1.10
2023-01-05T14:12:14.825Z,4.50
2023-01-05T14:13:53.233Z,3.13
2023-01-05T14:15:36.503Z,1.23
2023-01-05T14:16:58.607Z,1.90
2023-01-05T14:18:49.556Z,3.03
2023-01-05T14:20:40.902Z,1.50
2023-01-05T14:22:23.342Z,2.63
2023-01-05T14:23:45.405Z,3.43
2023-01-05T14:25:38.635Z,5.73
2023-01-05T14:27:02.650Z,1.80
2023-01-05T14:28:30.597Z,5.50
2023-01-05T14:29:52.887Z,1.90
2023-01-05T14:31:15.478Z,4.50
2023-01-05T14:32:41.516Z,2.93
2023-01-05T14:34:14.391Z,1.63
2023-01-05T14:35:37.763Z,2.37
2023-01-05T14:37:04.558Z,3.10
2023-01-05T14:38:26.724Z,6.20
2023-01-05T14:39:53.192Z,6.30
2023-01-05T14:41:26.572Z,9.43
2023-01-05T14:42:50.372Z,5.37
2023-01-05T14:44:20.774Z,6.07
2023-01-05T14:45:55.821Z,5.50
2023-01-05T14:47:33.643Z,2.73
2023-01-05T14:49:10.918Z,2.83
2023-01-05T14:50:42.555Z,3.80
2023-01-05T14:52:14.430Z,2.80
2023-01-05T14:53:37.842Z,4.90
2023-01-05T14:55:05.621Z,3.37
2023-01-05T14:56:31.264Z,2.83
2023-01-05T14:57:56.132Z,2.20
2023-01-05T14:59:24.639Z,3.27
2023-01-05T15:00:55.089Z,6.03
2023-01-05T15:02:24.680Z,10.40
2023-01-05T15:03:49.784Z,2.97
2023-01-05T15:05:16.026Z,3.33
2023-01-05T15:06:58.408Z,1.13
2023-01-05T15:08:55.559Z,1.23
2023-01-05T15:10:23.554Z,9.90
2023-01-05T15:12:27.602Z,3.63
2023-01-05T15:14:34.535Z,2.10
2023-01-05T15:16:23.772Z,1.57
2023-01-05T15:17:58.633Z,5.37
2023-01-05T15:19:42.706Z,6.77
2023-01-05T15:21:25.676Z,2.00
2023-01-05T15:22:53.355Z,1.27
2023-01-05T15:24:24.429Z,8.97
2023-01-05T15:26:03.125Z,1.93
2023-01-05T15:27:49.914Z,2.37
2023-01-05T15:29:33.628Z,2.13
2023-01-05T15:31:14.473Z,2.93
2023-01-05T15:32:42.367Z,2.43
2023-01-05T15:34:22.631Z,7.30
2023-01-05T15:35:53.969Z,6.00
2023-01-05T15:37:35.379Z,4.70
2023-01-05T15:38:57.777Z,2.30
2023-01-05T15:40:22.736Z,2.90
2023-01-05T15:41:44.948Z,4.20
2023-01-05T15:43:15.632Z,1.90
2023-01-05T15:44:42.751Z,4.37
2023-01-05T15:46:05.713Z,3.47
2023-01-05T15:47:29.832Z,3.60
2023-01-05T15:48:54.327Z,2.07
2023-01-05T15:50:29.967Z,5.50
2023-01-05T15:51:54.202Z,2.37
2023-01-05T15:53:29.742Z,7.33
2023-01-05T15:55:00.889Z,3.03
2023-01-05T15:56:36.209Z,3.00
2023-01-05T15:58:03.760Z,2.10
2023-01-05T15:59:38.225Z,3.47
2023-01-05T16:01:03.975Z,5.60
2023-01-05T16:02:30.223Z,3.83
2023-01-05T16:03:52.395Z,13.53
2023-01-05T16:05:26.169Z,3.23
2023-01-05T16:06:51.441Z,2.10
2023-01-05T16:08:16.837Z,2.00
2023-01-05T16:09:40.345Z,3.57
2023-01-05T16:11:07.446Z,4.90
2023-01-05T16:12:29.841Z,1.33
2023-01-05T16:13:58.318Z,0.93
2023-01-05T16:15:23.747Z,5.47
2023-01-05T16:16:53.740Z,2.87
2023-01-05T16:18:24.657Z,3.57
2023-01-05T16:19:48.633Z,2.93
2023-01-05T16:21:27.597Z,3.77
2023-01-05T16:23:08.906Z,2.00
2023-01-05T16:24:34.154Z,5.97
2023-01-05T16:25:59.330Z,2.40
2023-01-05T16:27:21.728Z,3.03
2023-01-05T16:28:45.204Z,1.83
2023-01-05T16:30:32.149Z,1.30
2023-01-05T16:31:56.249Z,3.80
2023-01-05T16:33:35.767Z,4.03
2023-01-05T16:35:20.804Z,1.13
2023-01-05T16:37:08.372Z,5.40
2023-01-05T16:38:31.302Z,3.03
2023-01-05T16:40:01.412Z,2.50
2023-01-05T16:41:27.807Z,1.00
2023-01-05T16:42:50.439Z,2.20
2023-01-05T16:44:13.716Z,3.80
2023-01-05T16:45:35.875Z,1.17
2023-01-05T16:47:09.127Z,1.00
2023-01-05T16:48:40.007Z,1.73
2023-01-05T16:50:22.413Z,4.90
2023-01-05T16:51:44.747Z,2.80
2023-01-05T16:53:12.895Z,2.80
2023-01-05T16:54:39.745Z,1.83
2023-01-05T16:56:02.507Z,3.20
2023-01-05T16:57:32.928Z,1.60
2023-01-05T16:58:55.012Z,2.70
2023-01-05T17:00:28.952Z,3.27
2023-01-05T17:01:51.053Z,2.70
2023-01-05T17:03:30.353Z,2.60
2023-01-05T17:04:52.451Z,2.77
2023-01-05T17:06:31.139Z,1.10
2023-01-05T17:08:23.079Z,2.90
2023-01-05T17:09:45.223Z,1.40
2023-01-05T17:11:12.142Z,3.83
2023-01-05T17:12:34.497Z,3.07
2023-01-05T17:13:56.832Z,2.93
2023-01-05T17:15:23.348Z,3.63
2023-01-05T17:16:45.519Z,1.63
2023-01-05T17:18:15.124Z,1.67
2023-01-05T17:19:37.589Z,2.87
2023-01-05T17:21:00.897Z,1.47
2023-01-05T17:22:23.149Z,2.53
2023-01-05T17:23:49.248Z,6.13
2023-01-05T17:25:14.798Z,3.90
2023-01-05T17:26:38.474Z,6.90
2023-01-05T17:28:00.637Z,6.40
2023-01-05T17:29:25.268Z,2.17
2023-01-05T17:30:47.460Z,1.50
2023-01-05T17:32:11.492Z,1.83
2023-01-05T17:33:33.521Z,3.47
2023-01-05T17:34:55.644Z,4.77
2023-01-05T17:36:26.578Z,2.70
2023-01-05T17:37:48.600Z,2.33
2023-01-05T17:39:15.502Z,1.40
2023-01-05T17:40:37.713Z,2.50
2023-01-05T17:42:22.627Z,1.70
2023-01-05T17:43:46.027Z,3.23
2023-01-05T17:45:15.596Z,3.80
2023-01-05T17:46:42.903Z,2.40
2023-01-05T17:48:05.188Z,1.43
2023-01-05T17:50:52.888Z,4.03
2023-01-05T17:52:16.333Z,3.90
2023-01-05T17:53:38.451Z,1.63
2023-01-05T17:55:00.516Z,2.50
2023-01-05T17:56:22.712Z,2.50
2023-01-05T17:57:44.862Z,2.57
2023-01-05T17:59:07.391Z,2.67
2023-01-05T18:00:33.372Z,2.30
2023-01-05T18:01:56.031Z,2.40
2023-01-05T18:03:22.373Z,1.57
2023-01-05T18:04:44.881Z,1.10
2023-01-05T18:06:09.174Z,1.30
2023-01-05T18:07:31.782Z,1.73
2023-01-05T18:08:53.849Z,1.80
2023-01-05T18:10:20.326Z,3.30
2023-01-05T18:11:42.558Z,3.77
2023-01-05T18:13:04.929Z,2.53
2023-01-05T18:14:27.308Z,3.40
2023-01-05T18:15:50.547Z,1.30
2023-01-05T18:17:12.809Z,2.33
2023-01-05T18:18:35.320Z,2.40
2023-01-05T18:19:57.445Z,1.57
2023-01-05T18:21:19.812Z,5.20
2023-01-05T18:22:42.261Z,2.30
2023-01-05T18:24:04.476Z,1.80
2023-01-05T18:25:26.753Z,4.63
2023-01-05T18:26:54.045Z,2.30
2023-01-05T18:28:18.012Z,4.43
2023-01-05T18:29:41.608Z,1.50
2023-01-05T18:31:14.887Z,3.27
2023-01-05T18:32:37.707Z,1.10
2023-01-05T18:33:59.823Z,3.03
2023-01-05T18:35:22.171Z,4.50
2023-01-05T18:36:44.294Z,1.37
2023-01-05T18:38:06.437Z,2.70
2023-01-05T18:39:29.452Z,5.10
2023-01-05T18:40:51.632Z,7.73
2023-01-05T18:42:13.716Z,1.00
2023-01-05T18:43:36.624Z,2.97
2023-01-05T18:44:59.901Z,5.90
2023-01-05T18:46:29.303Z,1.20
2023-01-05T18:47:51.601Z,3.23
2023-01-05T18:49:14.126Z,0.80
2023-01-05T18:50:42.122Z,4.00
2023-01-05T18:52:04.447Z,1.37
2023-01-05T18:53:26.619Z,1.07
2023-01-05T18:54:48.752Z,6.10
2023-01-05T18:56:13.373Z,2.33
2023-01-05T18:57:35.978Z,1.50
2023-01-05T18:58:58.155Z,1.37
2023-01-05T19:00:20.828Z,1.03
2023-01-05T19:01:43.216Z,0.83
2023-01-05T19:03:05.913Z,1.53
2023-01-05T19:05:32.598Z,1.87
2023-01-05T19:06:55.854Z,2.67
2023-01-05T19:08:17.969Z,1.43
2023-01-05T19:09:40.490Z,1.90
2023-01-05T19:11:20.126Z,3.57
2023-01-05T19:12:42.204Z,1.83
2023-01-05T19:14:05.823Z,3.17
2023-01-05T19:15:27.871Z,1.20
2023-01-05T19:16:50.046Z,1.30
2023-01-05T19:18:12.102Z,1.40
2023-01-05T19:19:34.169Z,3.50
2023-01-05T19:20:58.695Z,6.70
2023-01-05T19:22:20.886Z,1.60
2023-01-05T19:23:43.085Z,2.93
2023-01-05T19:25:06.975Z,11.40
2023-01-05T19:26:31.503Z,8.20
2023-01-05T19:27:53.917Z,2.77
2023-01-05T19:29:17.319Z,2.07
2023-01-05T19:30:39.419Z,1.97
2023-01-05T19:32:01.516Z,6.83
2023-01-05T19:33:23.598Z,1.63